Agapovka, Russia
Current Conditions -  °F | °C
As of 9:30 AM on Sunday 26 Oct 2014 (Local Time) from USCM Reporting Station
Broken Clouds Broken Clouds  
Wind Chill: -4°   Ceiling: 10000
Heat Index:   Visibility: 6mi
Dew Point:   Wind: 9mph
Humidity: 73%   Direction: 330°NNW
Pressure: 30.12"   Gusts: NA
Location:  53.3°N, 59.14°E
Report Text: USCM 260330Z 33004MPS 9999 BKN100 M13/M17 Q1020 NOSIG 01090065RMK QFE726
Loading
Personal Weather Stations






























Interactive Weather Map
Tropical Storm Tracking
New forecast layout! Learn more

10-Day Weather Forecast

Advertisements
Track Severe Weather on mobile